sensor_id;sensor_type;location;lat;lon;timestamp;pressure;altitude;pressure_sealevel;temperature;humidity
70338;BME280;57757;53.198;19.646;2022-11-12T00:01:12;101471.82;;;10.50;75.80
70338;BME280;57757;53.198;19.646;2022-11-12T00:03:40;101474.95;;;10.46;75.68
70338;BME280;57757;53.198;19.646;2022-11-12T00:06:07;101468.88;;;10.45;75.71
70338;BME280;57757;53.198;19.646;2022-11-12T00:08:35;101476.00;;;10.45;75.60
70338;BME280;57757;53.198;19.646;2022-11-12T00:11:03;101477.58;;;10.43;75.57
70338;BME280;57757;53.198;19.646;2022-11-12T00:13:31;101474.45;;;10.42;75.86
70338;BME280;57757;53.198;19.646;2022-11-12T00:15:59;101477.24;;;10.41;75.86
70338;BME280;57757;53.198;19.646;2022-11-12T00:18:26;101478.63;;;10.42;75.80
70338;BME280;57757;53.198;19.646;2022-11-12T00:20:54;101481.06;;;10.42;75.64
70338;BME280;57757;53.198;19.646;2022-11-12T00:23:22;101484.18;;;10.43;75.72
70338;BME280;57757;53.198;19.646;2022-11-12T00:26:00;101484.17;;;10.44;75.78
70338;BME280;57757;53.198;19.646;2022-11-12T00:28:27;101484.70;;;10.45;75.86
70338;BME280;57757;53.198;19.646;2022-11-12T00:31:06;101486.63;;;10.46;75.80
70338;BME280;57757;53.198;19.646;2022-11-12T00:33:38;101484.70;;;10.44;75.55
70338;BME280;57757;53.198;19.646;2022-11-12T00:36:07;101480.36;;;10.39;75.52
70338;BME280;57757;53.198;19.646;2022-11-12T00:38:35;101481.59;;;10.37;75.41
70338;BME280;57757;53.198;19.646;2022-11-12T00:41:03;101481.94;;;10.38;75.62
70338;BME280;57757;53.198;19.646;2022-11-12T00:43:31;101485.74;;;10.39;75.56
70338;BME280;57757;53.198;19.646;2022-11-12T00:45:59;101485.41;;;10.37;75.52
70338;BME280;57757;53.198;19.646;2022-11-12T00:48:26;101487.67;;;10.35;75.58
70338;BME280;57757;53.198;19.646;2022-11-12T00:51:11;101492.55;;;10.33;75.53
70338;BME280;57757;53.198;19.646;2022-11-12T00:53:38;101488.37;;;10.32;75.48
70338;BME280;57757;53.198;19.646;2022-11-12T00:56:06;101484.73;;;10.33;75.61
70338;BME280;57757;53.198;19.646;2022-11-12T00:58:35;101484.38;;;10.33;75.54
70338;BME280;57757;53.198;19.646;2022-11-12T01:01:11;101486.64;;;10.33;75.76
70338;BME280;57757;53.198;19.646;2022-11-12T01:03:39;101484.72;;;10.32;75.64
70338;BME280;57757;53.198;19.646;2022-11-12T01:06:13;101481.23;;;10.32;75.58
70338;BME280;57757;53.198;19.646;2022-11-12T01:08:42;101484.38;;;10.32;75.40
70338;BME280;57757;53.198;19.646;2022-11-12T01:11:19;101484.20;;;10.32;75.55
70338;BME280;57757;53.198;19.646;2022-11-12T01:14:02;101489.95;;;10.31;75.42
70338;BME280;57757;53.198;19.646;2022-11-12T01:16:35;101485.77;;;10.27;75.48
70338;BME280;57757;53.198;19.646;2022-11-12T01:19:05;101488.73;;;10.25;75.45
70338;BME280;57757;53.198;19.646;2022-11-12T01:21:37;101490.98;;;10.24;75.48
70338;BME280;57757;53.198;19.646;2022-11-12T01:24:06;101493.95;;;10.26;75.51
70338;BME280;57757;53.198;19.646;2022-11-12T01:26:34;101498.48;;;10.27;75.43
70338;BME280;57757;53.198;19.646;2022-11-12T01:29:02;101504.04;;;10.26;75.51
70338;BME280;57757;53.198;19.646;2022-11-12T01:31:36;101502.66;;;10.23;75.45
70338;BME280;57757;53.198;19.646;2022-11-12T01:34:06;101500.38;;;10.20;75.29
70338;BME280;57757;53.198;19.646;2022-11-12T01:36:37;101502.83;;;10.19;75.34
70338;BME280;57757;53.198;19.646;2022-11-12T01:39:06;101501.61;;;10.19;75.32
70338;BME280;57757;53.198;19.646;2022-11-12T01:41:37;101502.31;;;10.18;75.48
70338;BME280;57757;53.198;19.646;2022-11-12T01:44:07;101503.69;;;10.18;75.43
70338;BME280;57757;53.198;19.646;2022-11-12T01:49:33;101505.05;;;10.13;75.24
70338;BME280;57757;53.198;19.646;2022-11-12T01:52:09;101502.45;;;10.11;75.16
70338;BME280;57757;53.198;19.646;2022-11-12T01:54:39;101503.31;;;10.10;75.21
70338;BME280;57757;53.198;19.646;2022-11-12T01:57:09;101507.84;;;10.08;75.29
70338;BME280;57757;53.198;19.646;2022-11-12T01:59:44;101510.63;;;10.06;75.21
70338;BME280;57757;53.198;19.646;2022-11-12T02:02:13;101511.14;;;10.05;75.26
70338;BME280;57757;53.198;19.646;2022-11-12T02:04:42;101510.10;;;10.05;75.29
70338;BME280;57757;53.198;19.646;2022-11-12T02:07:11;101510.80;;;10.07;75.17
70338;BME280;57757;53.198;19.646;2022-11-12T02:09:40;101508.36;;;10.06;75.28
70338;BME280;57757;53.198;19.646;2022-11-12T02:12:10;101505.23;;;10.05;75.32
70338;BME280;57757;53.198;19.646;2022-11-12T02:14:58;101504.18;;;10.04;75.29
70338;BME280;57757;53.198;19.646;2022-11-12T02:17:25;101506.63;;;10.02;75.36
70338;BME280;57757;53.198;19.646;2022-11-12T02:19:57;101511.13;;;10.01;75.37
70338;BME280;57757;53.198;19.646;2022-11-12T02:22:25;101513.41;;;9.99;75.10
70338;BME280;57757;53.198;19.646;2022-11-12T02:24:52;101519.66;;;9.97;75.15
70338;BME280;57757;53.198;19.646;2022-11-12T02:27:21;101523.64;;;9.98;75.18
70338;BME280;57757;53.198;19.646;2022-11-12T02:29:49;101528.52;;;9.98;75.20
70338;BME280;57757;53.198;19.646;2022-11-12T02:32:17;101528.69;;;9.97;75.30
70338;BME280;57757;53.198;19.646;2022-11-12T02:34:45;101528.88;;;9.96;75.22
70338;BME280;57757;53.198;19.646;2022-11-12T02:37:12;101528.70;;;9.97;75.18
70338;BME280;57757;53.198;19.646;2022-11-12T02:39:40;101527.13;;;9.99;75.36
70338;BME280;57757;53.198;19.646;2022-11-12T02:42:07;101526.27;;;10.02;75.17
70338;BME280;57757;53.198;19.646;2022-11-12T02:44:35;101526.60;;;10.01;75.07
70338;BME280;57757;53.198;19.646;2022-11-12T02:47:03;101531.46;;;10.00;75.27
70338;BME280;57757;53.198;19.646;2022-11-12T02:49:30;101530.78;;;9.98;75.20
70338;BME280;57757;53.198;19.646;2022-11-12T02:51:58;101530.60;;;9.94;75.10
70338;BME280;57757;53.198;19.646;2022-11-12T02:54:25;101531.47;;;9.91;75.15
70338;BME280;57757;53.198;19.646;2022-11-12T02:56:53;101533.04;;;9.91;75.19
70338;BME280;57757;53.198;19.646;2022-11-12T02:59:20;101530.09;;;9.92;75.08
70338;BME280;57757;53.198;19.646;2022-11-12T03:01:48;101534.25;;;9.92;75.19
70338;BME280;57757;53.198;19.646;2022-11-12T03:04:15;101533.56;;;9.94;75.20
70338;BME280;57757;53.198;19.646;2022-11-12T03:06:43;101532.33;;;9.94;75.38
70338;BME280;57757;53.198;19.646;2022-11-12T03:09:11;101536.50;;;9.93;75.30
70338;BME280;57757;53.198;19.646;2022-11-12T03:11:39;101536.69;;;9.92;75.02
70338;BME280;57757;53.198;19.646;2022-11-12T03:14:07;101536.52;;;9.93;75.19
70338;BME280;57757;53.198;19.646;2022-11-12T03:16:35;101534.95;;;9.95;75.15
70338;BME280;57757;53.198;19.646;2022-11-12T03:19:03;101531.64;;;9.94;75.03
70338;BME280;57757;53.198;19.646;2022-11-12T03:21:30;101530.42;;;9.94;75.30
70338;BME280;57757;53.198;19.646;2022-11-12T03:23:58;101530.44;;;9.95;75.35
70338;BME280;57757;53.198;19.646;2022-11-12T03:26:27;101534.77;;;9.95;75.21
70338;BME280;57757;53.198;19.646;2022-11-12T03:29:02;101533.38;;;9.94;75.23
70338;BME280;57757;53.198;19.646;2022-11-12T03:31:29;101537.03;;;9.94;75.17
70338;BME280;57757;53.198;19.646;2022-11-12T03:33:57;101537.55;;;9.95;75.13
70338;BME280;57757;53.198;19.646;2022-11-12T03:36:25;101535.30;;;9.99;75.40
70338;BME280;57757;53.198;19.646;2022-11-12T03:38:52;101535.81;;;10.01;75.21
70338;BME280;57757;53.198;19.646;2022-11-12T03:41:20;101536.34;;;10.00;75.23
70338;BME280;57757;53.198;19.646;2022-11-12T03:43:47;101538.42;;;9.98;75.12
70338;BME280;57757;53.198;19.646;2022-11-12T03:46:15;101540.70;;;9.96;75.00
70338;BME280;57757;53.198;19.646;2022-11-12T03:48:42;101534.78;;;9.95;75.02
70338;BME280;57757;53.198;19.646;2022-11-12T03:51:10;101531.12;;;9.93;75.01
70338;BME280;57757;53.198;19.646;2022-11-12T03:53:42;101533.73;;;9.93;75.05
70338;BME280;57757;53.198;19.646;2022-11-12T03:56:10;101534.60;;;9.93;75.12
70338;BME280;57757;53.198;19.646;2022-11-12T03:58:37;101535.99;;;9.91;75.10
70338;BME280;57757;53.198;19.646;2022-11-12T04:01:05;101535.30;;;9.92;75.15
70338;BME280;57757;53.198;19.646;2022-11-12T04:03:33;101538.59;;;9.93;75.26
70338;BME280;57757;53.198;19.646;2022-11-12T04:06:00;101536.52;;;9.96;75.11
70338;BME280;57757;53.198;19.646;2022-11-12T04:08:44;101536.86;;;9.98;75.20
70338;BME280;57757;53.198;19.646;2022-11-12T04:11:14;101537.20;;;9.97;75.12
70338;BME280;57757;53.198;19.646;2022-11-12T04:13:43;101537.90;;;9.95;74.95
70338;BME280;57757;53.198;19.646;2022-11-12T04:19:00;101538.06;;;9.85;74.82
70338;BME280;57757;53.198;19.646;2022-11-12T04:21:46;101533.88;;;9.82;74.70
70338;BME280;57757;53.198;19.646;2022-11-12T04:27:05;101539.96;;;9.78;74.76
70338;BME280;57757;53.198;19.646;2022-11-12T04:29:33;101545.17;;;9.73;74.74
70338;BME280;57757;53.198;19.646;2022-11-12T04:32:16;101540.66;;;9.72;74.82
70338;BME280;57757;53.198;19.646;2022-11-12T04:34:44;101539.80;;;9.72;74.88
70338;BME280;57757;53.198;19.646;2022-11-12T04:37:12;101536.67;;;9.73;75.01
70338;BME280;57757;53.198;19.646;2022-11-12T04:39:40;101539.80;;;9.73;74.90
70338;BME280;57757;53.198;19.646;2022-11-12T04:42:08;101541.02;;;9.71;74.84
70338;BME280;57757;53.198;19.646;2022-11-12T04:44:54;101537.00;;;9.70;74.89
70338;BME280;57757;53.198;19.646;2022-11-12T04:47:39;101534.23;;;9.69;74.85
70338;BME280;57757;53.198;19.646;2022-11-12T04:50:13;101535.61;;;9.71;74.88
70338;BME280;57757;53.198;19.646;2022-11-12T04:52:42;101536.31;;;9.72;74.85
70338;BME280;57757;53.198;19.646;2022-11-12T04:55:10;101534.23;;;9.72;74.79
70338;BME280;57757;53.198;19.646;2022-11-12T04:57:38;101537.88;;;9.70;74.80
70338;BME280;57757;53.198;19.646;2022-11-12T05:00:06;101543.60;;;9.70;74.90
70338;BME280;57757;53.198;19.646;2022-11-12T05:02:34;101542.21;;;9.68;74.60
70338;BME280;57757;53.198;19.646;2022-11-12T05:05:01;101537.17;;;9.66;74.68
70338;BME280;57757;53.198;19.646;2022-11-12T05:07:31;101536.48;;;9.66;74.65
70338;BME280;57757;53.198;19.646;2022-11-12T05:09:59;101532.48;;;9.64;74.52
70338;BME280;57757;53.198;19.646;2022-11-12T05:12:26;101529.52;;;9.62;74.75
70338;BME280;57757;53.198;19.646;2022-11-12T05:14:54;101530.73;;;9.62;74.88
70338;BME280;57757;53.198;19.646;2022-11-12T05:17:21;101535.26;;;9.62;74.96
70338;BME280;57757;53.198;19.646;2022-11-12T05:19:49;101534.91;;;9.62;74.80
70338;BME280;57757;53.198;19.646;2022-11-12T05:22:17;101539.59;;;9.63;74.87
70338;BME280;57757;53.198;19.646;2022-11-12T05:25:06;101535.61;;;9.65;74.82
70338;BME280;57757;53.198;19.646;2022-11-12T05:27:34;101534.74;;;9.67;74.84
70338;BME280;57757;53.198;19.646;2022-11-12T05:30:02;101538.73;;;9.66;74.80
70338;BME280;57757;53.198;19.646;2022-11-12T05:32:30;101539.60;;;9.64;74.75
70338;BME280;57757;53.198;19.646;2022-11-12T05:34:58;101543.77;;;9.61;74.80
70338;BME280;57757;53.198;19.646;2022-11-12T05:37:25;101545.33;;;9.60;74.73
70338;BME280;57757;53.198;19.646;2022-11-12T05:39:53;101545.33;;;9.61;74.65
70338;BME280;57757;53.198;19.646;2022-11-12T05:42:20;101546.89;;;9.61;74.77
70338;BME280;57757;53.198;19.646;2022-11-12T05:44:48;101543.41;;;9.59;74.71
70338;BME280;57757;53.198;19.646;2022-11-12T05:47:15;101542.38;;;9.58;74.75
70338;BME280;57757;53.198;19.646;2022-11-12T05:49:43;101544.98;;;9.58;74.77
70338;BME280;57757;53.198;19.646;2022-11-12T05:52:11;101546.36;;;9.57;74.80
70338;BME280;57757;53.198;19.646;2022-11-12T05:54:38;101549.30;;;9.56;74.67
70338;BME280;57757;53.198;19.646;2022-11-12T05:57:06;101551.91;;;9.55;74.69
70338;BME280;57757;53.198;19.646;2022-11-12T05:59:33;101551.90;;;9.56;74.70
70338;BME280;57757;53.198;19.646;2022-11-12T06:02:01;101555.92;;;9.57;74.86
70338;BME280;57757;53.198;19.646;2022-11-12T06:04:29;101560.43;;;9.56;74.88
70338;BME280;57757;53.198;19.646;2022-11-12T06:06:56;101559.04;;;9.56;74.88
70338;BME280;57757;53.198;19.646;2022-11-12T06:09:24;101565.13;;;9.57;74.68
70338;BME280;57757;53.198;19.646;2022-11-12T06:11:52;101562.34;;;9.60;74.82
70338;BME280;57757;53.198;19.646;2022-11-12T06:14:19;101565.48;;;9.64;74.83
70338;BME280;57757;53.198;19.646;2022-11-12T06:16:47;101568.60;;;9.66;74.79
70338;BME280;57757;53.198;19.646;2022-11-12T06:19:15;101570.36;;;9.68;75.01
70338;BME280;57757;53.198;19.646;2022-11-12T06:21:42;101571.73;;;9.71;75.00
70338;BME280;57757;53.198;19.646;2022-11-12T06:24:10;101577.48;;;9.71;74.87
70338;BME280;57757;53.198;19.646;2022-11-12T06:26:38;101579.23;;;9.72;75.01
70338;BME280;57757;53.198;19.646;2022-11-12T06:29:05;101583.21;;;9.71;74.77
70338;BME280;57757;53.198;19.646;2022-11-12T06:31:33;101582.52;;;9.70;74.60
70338;BME280;57757;53.198;19.646;2022-11-12T06:34:01;101581.65;;;9.70;74.73
70338;BME280;57757;53.198;19.646;2022-11-12T06:36:29;101582.71;;;9.73;74.78
70338;BME280;57757;53.198;19.646;2022-11-12T06:38:57;101584.42;;;9.74;74.80
70338;BME280;57757;53.198;19.646;2022-11-12T06:41:24;101585.48;;;9.76;74.85
70338;BME280;57757;53.198;19.646;2022-11-12T06:43:52;101586.35;;;9.75;74.86
70338;BME280;57757;53.198;19.646;2022-11-12T06:46:20;101586.18;;;9.77;74.87
70338;BME280;57757;53.198;19.646;2022-11-12T06:48:47;101590.52;;;9.81;75.05
70338;BME280;57757;53.198;19.646;2022-11-12T06:51:17;101593.49;;;9.85;74.84
70338;BME280;57757;53.198;19.646;2022-11-12T06:53:46;101596.80;;;9.88;74.86
70338;BME280;57757;53.198;19.646;2022-11-12T06:56:14;101600.62;;;9.90;74.79
70338;BME280;57757;53.198;19.646;2022-11-12T06:58:41;101604.09;;;9.90;74.82
70338;BME280;57757;53.198;19.646;2022-11-12T07:01:15;101602.53;;;9.87;74.69
70338;BME280;57757;53.198;19.646;2022-11-12T07:03:43;101599.23;;;9.84;74.65
70338;BME280;57757;53.198;19.646;2022-11-12T07:06:15;101602.52;;;9.83;74.74
70338;BME280;57757;53.198;19.646;2022-11-12T07:08:46;101603.39;;;9.83;74.74
70338;BME280;57757;53.198;19.646;2022-11-12T07:11:17;101602.35;;;9.83;74.67
70338;BME280;57757;53.198;19.646;2022-11-12T07:13:46;101605.84;;;9.84;74.78
70338;BME280;57757;53.198;19.646;2022-11-12T07:16:14;101614.52;;;9.84;74.81
70338;BME280;57757;53.198;19.646;2022-11-12T07:18:46;101612.44;;;9.85;74.82
70338;BME280;57757;53.198;19.646;2022-11-12T07:21:16;101612.26;;;9.87;74.91
70338;BME280;57757;53.198;19.646;2022-11-12T07:23:46;101609.14;;;9.91;74.87
70338;BME280;57757;53.198;19.646;2022-11-12T07:26:15;101612.96;;;9.94;74.75
70338;BME280;57757;53.198;19.646;2022-11-12T07:28:44;101615.94;;;9.98;74.93
70338;BME280;57757;53.198;19.646;2022-11-12T07:31:14;101618.89;;;10.01;74.97
70338;BME280;57757;53.198;19.646;2022-11-12T07:33:42;101617.85;;;10.02;74.80
70338;BME280;57757;53.198;19.646;2022-11-12T07:36:12;101620.46;;;10.03;74.83
70338;BME280;57757;53.198;19.646;2022-11-12T07:38:41;101620.64;;;10.07;74.92
70338;BME280;57757;53.198;19.646;2022-11-12T07:41:11;101617.86;;;10.11;74.73
70338;BME280;57757;53.198;19.646;2022-11-12T07:43:43;101616.81;;;10.14;74.83
70338;BME280;57757;53.198;19.646;2022-11-12T07:46:20;101617.86;;;10.13;74.69
70338;BME280;57757;53.198;19.646;2022-11-12T07:48:48;101616.13;;;10.10;74.77
70338;BME280;57757;53.198;19.646;2022-11-12T07:51:18;101609.70;;;10.11;74.85
70338;BME280;57757;53.198;19.646;2022-11-12T07:53:47;101605.00;;;10.10;74.68
70338;BME280;57757;53.198;19.646;2022-11-12T07:56:17;101600.99;;;10.12;74.71
70338;BME280;57757;53.198;19.646;2022-11-12T07:58:46;101601.58;;;10.16;74.79
70338;BME280;57757;53.198;19.646;2022-11-12T08:03:48;101596.70;;;10.24;74.99
70338;BME280;57757;53.198;19.646;2022-11-12T08:06:15;101600.88;;;10.26;74.91
70338;BME280;57757;53.198;19.646;2022-11-12T08:08:43;101601.58;;;10.27;74.74
70338;BME280;57757;53.198;19.646;2022-11-12T08:11:11;101604.17;;;10.29;74.67
70338;BME280;57757;53.198;19.646;2022-11-12T08:13:38;101604.88;;;10.30;74.73
70338;BME280;57757;53.198;19.646;2022-11-12T08:16:06;101608.18;;;10.30;74.60
70338;BME280;57757;53.198;19.646;2022-11-12T08:18:34;101614.61;;;10.29;74.67
70338;BME280;57757;53.198;19.646;2022-11-12T08:21:04;101618.26;;;10.27;74.63
70338;BME280;57757;53.198;19.646;2022-11-12T08:23:32;101625.20;;;10.25;74.57
70338;BME280;57757;53.198;19.646;2022-11-12T08:26:02;101631.46;;;10.24;74.68
70338;BME280;57757;53.198;19.646;2022-11-12T08:28:31;101630.95;;;10.25;74.65
70338;BME280;57757;53.198;19.646;2022-11-12T08:31:08;101631.81;;;10.25;74.80
70338;BME280;57757;53.198;19.646;2022-11-12T08:33:36;101635.98;;;10.23;74.69
70338;BME280;57757;53.198;19.646;2022-11-12T08:36:06;101642.26;;;10.23;74.73
70338;BME280;57757;53.198;19.646;2022-11-12T08:38:35;101640.70;;;10.25;74.77
70338;BME280;57757;53.198;19.646;2022-11-12T08:41:05;101640.69;;;10.31;74.94
70338;BME280;57757;53.198;19.646;2022-11-12T08:43:33;101638.95;;;10.35;74.87
70338;BME280;57757;53.198;19.646;2022-11-12T08:46:02;101642.80;;;10.35;74.86
70338;BME280;57757;53.198;19.646;2022-11-12T08:48:31;101648.35;;;10.35;74.77
70338;BME280;57757;53.198;19.646;2022-11-12T08:51:02;101649.39;;;10.35;74.83
70338;BME280;57757;53.198;19.646;2022-11-12T08:53:30;101650.60;;;10.39;74.83
70338;BME280;57757;53.198;19.646;2022-11-12T08:55:59;101652.00;;;10.42;74.98
70338;BME280;57757;53.198;19.646;2022-11-12T08:58:26;101657.05;;;10.45;74.85
70338;BME280;57757;53.198;19.646;2022-11-12T09:00:56;101653.73;;;10.44;74.84
70338;BME280;57757;53.198;19.646;2022-11-12T09:03:25;101653.23;;;10.42;74.67
70338;BME280;57757;53.198;19.646;2022-11-12T09:05:53;101655.13;;;10.40;74.64
70338;BME280;57757;53.198;19.646;2022-11-12T09:08:23;101657.04;;;10.39;74.69
70338;BME280;57757;53.198;19.646;2022-11-12T09:10:52;101659.99;;;10.39;74.82
70338;BME280;57757;53.198;19.646;2022-11-12T09:13:20;101658.95;;;10.40;74.81
70338;BME280;57757;53.198;19.646;2022-11-12T09:15:47;101663.30;;;10.42;74.91
70338;BME280;57757;53.198;19.646;2022-11-12T09:18:17;101665.39;;;10.45;74.83
70338;BME280;57757;53.198;19.646;2022-11-12T09:20:45;101666.10;;;10.45;74.77
70338;BME280;57757;53.198;19.646;2022-11-12T09:23:15;101663.65;;;10.47;74.75
70338;BME280;57757;53.198;19.646;2022-11-12T09:25:44;101670.96;;;10.46;74.79
70338;BME280;57757;53.198;19.646;2022-11-12T09:28:17;101674.09;;;10.46;74.83
70338;BME280;57757;53.198;19.646;2022-11-12T09:30:47;101669.40;;;10.48;74.78
70338;BME280;57757;53.198;19.646;2022-11-12T09:33:17;101671.83;;;10.51;74.81
70338;BME280;57757;53.198;19.646;2022-11-12T09:35:46;101676.00;;;10.51;74.69
70338;BME280;57757;53.198;19.646;2022-11-12T09:38:15;101675.31;;;10.49;74.76
70338;BME280;57757;53.198;19.646;2022-11-12T09:43:36;101670.44;;;10.48;74.77
70338;BME280;57757;53.198;19.646;2022-11-12T09:49:13;101675.48;;;10.50;74.71
70338;BME280;57757;53.198;19.646;2022-11-12T09:51:48;101672.52;;;10.51;74.87
70338;BME280;57757;53.198;19.646;2022-11-12T09:54:25;101682.79;;;10.53;75.01
70338;BME280;57757;53.198;19.646;2022-11-12T09:56:54;101685.57;;;10.55;74.79
70338;BME280;57757;53.198;19.646;2022-11-12T09:59:25;101666.80;;;10.57;74.80
70338;BME280;57757;53.198;19.646;2022-11-12T10:02:04;101679.84;;;10.59;74.93
70338;BME280;57757;53.198;19.646;2022-11-12T10:04:45;101684.53;;;10.62;74.95
70338;BME280;57757;53.198;19.646;2022-11-12T10:10:00;101671.84;;;10.69;74.92
70338;BME280;57757;53.198;19.646;2022-11-12T10:15:19;101686.09;;;10.75;74.90
70338;BME280;57757;53.198;19.646;2022-11-12T10:18:15;101665.04;;;10.79;74.93
70338;BME280;57757;53.198;19.646;2022-11-12T10:21:22;101673.73;;;10.81;74.94
70338;BME280;57757;53.198;19.646;2022-11-12T10:23:51;101664.16;;;10.81;74.86
70338;BME280;57757;53.198;19.646;2022-11-12T10:26:22;101672.17;;;10.83;74.94
70338;BME280;57757;53.198;19.646;2022-11-12T10:31:37;101671.48;;;10.88;74.71
70338;BME280;57757;53.198;19.646;2022-11-12T10:34:22;101672.17;;;10.87;74.76
70338;BME280;57757;53.198;19.646;2022-11-12T10:36:54;101657.38;;;10.89;74.83
70338;BME280;57757;53.198;19.646;2022-11-12T10:39:40;101656.85;;;10.90;74.75
70338;BME280;57757;53.198;19.646;2022-11-12T10:42:14;101653.70;;;10.91;74.88
70338;BME280;57757;53.198;19.646;2022-11-12T10:44:43;101655.96;;;10.98;74.91
70338;BME280;57757;53.198;19.646;2022-11-12T10:49:41;101653.34;;;11.08;74.82
70338;BME280;57757;53.198;19.646;2022-11-12T10:52:21;101641.48;;;11.09;74.81
70338;BME280;57757;53.198;19.646;2022-11-12T10:55:03;101637.48;;;11.10;74.82
70338;BME280;57757;53.198;19.646;2022-11-12T10:57:32;101640.44;;;11.09;74.75
70338;BME280;57757;53.198;19.646;2022-11-12T11:02:49;101639.39;;;11.15;74.74
70338;BME280;57757;53.198;19.646;2022-11-12T11:05:34;101630.48;;;11.18;74.82
70338;BME280;57757;53.198;19.646;2022-11-12T11:08:03;101627.88;;;11.22;74.67
70338;BME280;57757;53.198;19.646;2022-11-12T11:10:34;101629.10;;;11.25;74.92
70338;BME280;57757;53.198;19.646;2022-11-12T11:16:04;101626.46;;;11.30;74.77
70338;BME280;57757;53.198;19.646;2022-11-12T11:18:35;101625.40;;;11.31;74.53
70338;BME280;57757;53.198;19.646;2022-11-12T11:58:49;101628.75;;;11.63;74.45
70338;BME280;57757;53.198;19.646;2022-11-12T12:18:13;101633.98;;;11.72;74.43
70338;BME280;57757;53.198;19.646;2022-11-12T12:21:05;101632.23;;;11.73;74.41
70338;BME280;57757;53.198;19.646;2022-11-12T12:26:43;101635.86;;;11.70;74.43
70338;BME280;57757;53.198;19.646;2022-11-12T12:29:55;101639.00;;;11.69;74.43
70338;BME280;57757;53.198;19.646;2022-11-12T12:34:56;101631.02;;;11.71;74.27
70338;BME280;57757;53.198;19.646;2022-11-12T12:37:49;101635.02;;;11.71;74.32
70338;BME280;57757;53.198;19.646;2022-11-12T12:40:30;101635.17;;;11.69;74.24
70338;BME280;57757;53.198;19.646;2022-11-12T12:43:20;101634.14;;;11.64;74.22
70338;BME280;57757;53.198;19.646;2022-11-12T12:45:49;101640.44;;;11.62;74.32
70338;BME280;57757;53.198;19.646;2022-11-12T12:51:04;101639.20;;;11.65;74.31
70338;BME280;57757;53.198;19.646;2022-11-12T12:53:34;101639.71;;;11.67;74.32
70338;BME280;57757;53.198;19.646;2022-11-12T12:59:00;101636.75;;;11.66;74.39
70338;BME280;57757;53.198;19.646;2022-11-12T13:01:35;101635.70;;;11.66;74.47
70338;BME280;57757;53.198;19.646;2022-11-12T13:04:07;101636.76;;;11.67;74.38
70338;BME280;57757;53.198;19.646;2022-11-12T13:43:25;101657.98;;;11.78;74.26
70338;BME280;57757;53.198;19.646;2022-11-12T13:49:01;101663.35;;;11.85;74.38
70338;BME280;57757;53.198;19.646;2022-11-12T13:54:00;101663.89;;;11.83;74.22
70338;BME280;57757;53.198;19.646;2022-11-12T13:56:30;101662.35;;;11.79;74.25
70338;BME280;57757;53.198;19.646;2022-11-12T13:59:18;101661.33;;;11.74;74.07
70338;BME280;57757;53.198;19.646;2022-11-12T14:01:47;101657.29;;;11.70;74.17
70338;BME280;57757;53.198;19.646;2022-11-12T14:04:18;101653.48;;;11.68;74.25
70338;BME280;57757;53.198;19.646;2022-11-12T14:06:49;101652.43;;;11.66;74.32
70338;BME280;57757;53.198;19.646;2022-11-12T14:09:38;101651.05;;;11.64;74.18
70338;BME280;57757;53.198;19.646;2022-11-12T14:20:32;101645.88;;;11.51;74.27
70338;BME280;57757;53.198;19.646;2022-11-12T14:23:11;101645.20;;;11.48;74.23
70338;BME280;57757;53.198;19.646;2022-11-12T14:25:51;101652.70;;;11.46;74.21
70338;BME280;57757;53.198;19.646;2022-11-12T14:28:35;101658.11;;;11.44;74.26
70338;BME280;57757;53.198;19.646;2022-11-12T14:31:11;101658.80;;;11.42;74.26
70338;BME280;57757;53.198;19.646;2022-11-12T14:33:39;101658.11;;;11.40;74.25
70338;BME280;57757;53.198;19.646;2022-11-12T14:36:14;101665.08;;;11.39;74.29
70338;BME280;57757;53.198;19.646;2022-11-12T14:38:46;101670.13;;;11.38;74.32
70338;BME280;57757;53.198;19.646;2022-11-12T14:43:50;101677.12;;;11.36;74.47
70338;BME280;57757;53.198;19.646;2022-11-12T14:46:49;101671.90;;;11.37;74.44
70338;BME280;57757;53.198;19.646;2022-11-12T14:49:42;101668.58;;;11.37;74.41
70338;BME280;57757;53.198;19.646;2022-11-12T14:52:16;101674.33;;;11.35;74.39
70338;BME280;57757;53.198;19.646;2022-11-12T14:54:46;101679.39;;;11.31;74.34
70338;BME280;57757;53.198;19.646;2022-11-12T14:57:20;101676.78;;;11.28;74.43
70338;BME280;57757;53.198;19.646;2022-11-12T14:59:49;101677.31;;;11.28;74.54
70338;BME280;57757;53.198;19.646;2022-11-12T15:02:20;101684.45;;;11.28;74.52
70338;BME280;57757;53.198;19.646;2022-11-12T15:10:33;101688.83;;;11.26;74.53
70338;BME280;57757;53.198;19.646;2022-11-12T15:13:09;101686.73;;;11.26;74.54
70338;BME280;57757;53.198;19.646;2022-11-12T15:15:47;101681.33;;;11.27;74.48
70338;BME280;57757;53.198;19.646;2022-11-12T15:18:32;101689.50;;;11.28;74.52
70338;BME280;57757;53.198;19.646;2022-11-12T15:21:09;101692.30;;;11.28;74.59
70338;BME280;57757;53.198;19.646;2022-11-12T15:26:33;101691.41;;;11.27;74.61
70338;BME280;57757;53.198;19.646;2022-11-12T15:32:02;101693.49;;;11.32;74.64
70338;BME280;57757;53.198;19.646;2022-11-12T15:37:07;101695.23;;;11.33;74.69
70338;BME280;57757;53.198;19.646;2022-11-12T15:39:42;101694.73;;;11.31;74.67
70338;BME280;57757;53.198;19.646;2022-11-12T15:42:15;101695.77;;;11.29;74.60
70338;BME280;57757;53.198;19.646;2022-11-12T15:44:44;101700.12;;;11.28;74.55
70338;BME280;57757;53.198;19.646;2022-11-12T15:47:19;101695.59;;;11.31;74.76
70338;BME280;57757;53.198;19.646;2022-11-12T15:49:52;101699.77;;;11.32;74.58